createdAt,value
2022-11-22T00:02:04.822Z,8.18
2022-11-22T00:04:34.105Z,7.65
2022-11-22T00:07:05.010Z,8.38
2022-11-22T00:09:34.579Z,7.47
2022-11-22T00:12:10.968Z,9.27
2022-11-22T00:17:55.356Z,7.05
2022-11-22T00:20:25.019Z,8.35
2022-11-22T00:22:55.976Z,7.47
2022-11-22T00:25:25.286Z,8.00
2022-11-22T00:27:54.914Z,7.03
2022-11-22T00:30:24.206Z,6.72
2022-11-22T00:32:53.367Z,7.30
2022-11-22T00:35:22.650Z,7.53
2022-11-22T00:37:51.990Z,8.05
2022-11-22T00:40:22.798Z,7.10
2022-11-22T00:42:52.140Z,7.70
2022-11-22T00:45:21.400Z,8.18
2022-11-22T00:47:50.754Z,26.25
2022-11-22T00:50:20.238Z,8.00
2022-11-22T00:52:49.473Z,8.27
2022-11-22T00:55:18.908Z,7.88
2022-11-22T00:57:49.740Z,8.57
2022-11-22T01:00:19.814Z,7.95
2022-11-22T01:02:49.290Z,8.85
2022-11-22T01:05:19.115Z,8.45
2022-11-22T01:07:48.550Z,9.77
2022-11-22T01:10:18.050Z,10.77
2022-11-22T01:12:47.419Z,8.30
2022-11-22T01:15:18.206Z,8.90
2022-11-22T01:17:47.549Z,8.32
2022-11-22T01:20:16.897Z,8.23
2022-11-22T01:22:46.165Z,8.98
2022-11-22T01:25:15.422Z,9.68
2022-11-22T01:27:44.748Z,8.63
2022-11-22T01:30:14.931Z,9.15
2022-11-22T01:32:45.731Z,8.98
2022-11-22T01:35:14.948Z,10.50
2022-11-22T01:37:44.208Z,14.88
2022-11-22T01:40:14.219Z,13.98
2022-11-22T01:42:50.346Z,16.55
2022-11-22T01:45:45.252Z,16.83
2022-11-22T01:48:37.000Z,22.70
2022-11-22T01:51:11.871Z,16.17
2022-11-22T01:53:42.704Z,15.40
2022-11-22T01:56:16.715Z,15.13
2022-11-22T01:58:49.019Z,12.07
2022-11-22T02:01:18.371Z,16.60
2022-11-22T02:03:53.857Z,14.63
2022-11-22T02:06:23.496Z,19.00
2022-11-22T02:08:59.466Z,23.25
2022-11-22T02:11:34.034Z,21.40
2022-11-22T02:14:04.463Z,28.38
2022-11-22T02:16:35.724Z,22.48
2022-11-22T02:19:07.612Z,26.63
2022-11-22T02:21:36.988Z,25.25
2022-11-22T02:24:14.255Z,23.92
2022-11-22T02:26:45.070Z,22.23
2022-11-22T02:29:16.177Z,17.23
2022-11-22T02:31:47.100Z,18.00
2022-11-22T02:37:53.386Z,20.98
2022-11-22T02:40:23.595Z,23.77
2022-11-22T02:43:00.709Z,24.05
2022-11-22T02:45:30.170Z,23.92
2022-11-22T02:48:35.146Z,23.98
2022-11-22T02:51:24.010Z,22.52
2022-11-22T02:53:54.094Z,22.90
2022-11-22T02:56:23.375Z,23.60
2022-11-22T02:58:54.185Z,25.40
2022-11-22T03:01:31.394Z,31.05
2022-11-22T03:04:03.162Z,30.40
2022-11-22T03:06:45.131Z,33.40
2022-11-22T03:09:14.349Z,31.10
2022-11-22T03:11:43.970Z,31.15
2022-11-22T03:14:14.926Z,30.75
2022-11-22T03:16:44.383Z,31.00
2022-11-22T03:19:14.257Z,28.17
2022-11-22T03:21:45.013Z,29.27
2022-11-22T03:24:14.478Z,27.80
2022-11-22T03:26:44.042Z,25.55
2022-11-22T03:29:14.778Z,19.90
2022-11-22T03:31:43.932Z,17.25
2022-11-22T03:34:14.144Z,10.50
2022-11-22T03:36:43.393Z,8.52
2022-11-22T03:39:12.525Z,10.32
2022-11-22T03:41:41.622Z,10.85
2022-11-22T03:44:12.842Z,9.25
2022-11-22T03:46:43.427Z,8.52
2022-11-22T03:49:13.721Z,8.38
2022-11-22T03:51:42.800Z,8.50
2022-11-22T03:54:12.017Z,8.30
2022-11-22T03:56:41.083Z,9.18
2022-11-22T03:59:11.282Z,9.95
2022-11-22T04:01:42.372Z,8.93
2022-11-22T04:04:13.124Z,8.57
2022-11-22T04:06:42.252Z,8.93
2022-11-22T04:09:13.692Z,7.97
2022-11-22T04:11:45.105Z,7.35
2022-11-22T04:14:31.813Z,8.95
2022-11-22T04:17:01.952Z,7.88
2022-11-22T04:19:32.835Z,7.32
2022-11-22T04:22:00.916Z,7.53
2022-11-22T04:24:47.153Z,6.90
2022-11-22T04:27:16.523Z,7.63
2022-11-22T04:29:45.709Z,8.48
2022-11-22T04:32:31.988Z,8.07
2022-11-22T04:35:02.733Z,8.57
2022-11-22T04:37:32.938Z,7.50
2022-11-22T04:40:02.029Z,7.88
2022-11-22T04:42:47.987Z,5.78
2022-11-22T04:45:17.248Z,5.70
2022-11-22T04:48:01.464Z,7.93
2022-11-22T04:50:50.415Z,6.55
2022-11-22T04:53:20.610Z,7.25
2022-11-22T04:55:49.776Z,6.60
2022-11-22T04:58:19.374Z,6.68
2022-11-22T05:00:48.701Z,5.93
2022-11-22T05:03:18.299Z,7.55
2022-11-22T05:05:49.045Z,7.28
2022-11-22T05:08:18.502Z,7.25
2022-11-22T05:10:58.406Z,6.22
2022-11-22T05:13:30.328Z,7.30
2022-11-22T05:16:04.584Z,7.70
2022-11-22T05:18:37.434Z,6.38
2022-11-22T05:21:10.066Z,7.75
2022-11-22T05:23:55.622Z,8.55
2022-11-22T05:26:26.179Z,7.50
2022-11-22T05:28:57.421Z,7.10
2022-11-22T05:31:28.337Z,7.68
2022-11-22T05:34:03.543Z,8.45
2022-11-22T05:36:39.466Z,9.68
2022-11-22T05:41:38.449Z,9.85
2022-11-22T05:44:13.194Z,7.13
2022-11-22T05:46:42.604Z,7.13
2022-11-22T05:49:11.796Z,8.55
2022-11-22T05:51:45.604Z,7.18
2022-11-22T05:54:14.849Z,5.45
2022-11-22T05:56:45.381Z,6.68
2022-11-22T05:59:17.205Z,7.38
2022-11-22T06:01:48.354Z,7.55
2022-11-22T06:04:17.470Z,7.47
2022-11-22T06:06:51.821Z,8.23
2022-11-22T06:09:28.060Z,8.07
2022-11-22T06:12:02.961Z,7.78
2022-11-22T06:14:32.050Z,8.10
2022-11-22T06:17:01.331Z,9.15
2022-11-22T06:19:33.499Z,10.05
2022-11-22T06:22:04.162Z,8.50
2022-11-22T06:24:33.278Z,9.05
2022-11-22T06:27:03.011Z,8.40
2022-11-22T06:29:32.378Z,7.05
2022-11-22T06:32:03.776Z,7.82
2022-11-22T06:34:33.312Z,9.32
2022-11-22T06:37:03.974Z,8.45
2022-11-22T06:39:33.402Z,8.30
2022-11-22T06:42:02.875Z,8.52
2022-11-22T06:44:32.082Z,23.75
2022-11-22T06:47:01.442Z,13.05
2022-11-22T06:49:31.281Z,10.95
2022-11-22T06:52:00.857Z,9.10
2022-11-22T06:54:31.545Z,8.73
2022-11-22T06:57:00.790Z,8.07
2022-11-22T06:59:30.170Z,7.47
2022-11-22T07:02:05.870Z,7.88
2022-11-22T07:04:50.933Z,8.10
2022-11-22T07:07:27.131Z,8.40
2022-11-22T07:09:57.813Z,8.05
2022-11-22T07:12:32.912Z,8.02
2022-11-22T07:15:02.049Z,9.13
2022-11-22T07:17:32.225Z,8.85
2022-11-22T07:20:01.454Z,8.52
2022-11-22T07:22:30.542Z,7.15
2022-11-22T07:25:01.172Z,5.82
2022-11-22T07:27:30.514Z,6.80
2022-11-22T07:29:59.661Z,8.68
2022-11-22T07:32:29.032Z,7.47
2022-11-22T07:34:58.163Z,8.20
2022-11-22T07:37:27.271Z,8.43
2022-11-22T07:39:56.355Z,9.20
2022-11-22T07:42:26.992Z,6.82
2022-11-22T07:44:58.843Z,6.90
2022-11-22T07:47:28.018Z,8.35
2022-11-22T07:49:57.136Z,7.63
2022-11-22T07:52:26.412Z,7.68
2022-11-22T07:54:58.251Z,7.25
2022-11-22T07:57:28.911Z,9.13
2022-11-22T07:59:58.042Z,8.57
2022-11-22T08:02:27.478Z,7.93
2022-11-22T08:04:59.695Z,7.78
2022-11-22T08:07:29.583Z,7.82
2022-11-22T08:09:58.824Z,7.63
2022-11-22T08:12:29.574Z,8.48
2022-11-22T08:14:59.225Z,7.40
2022-11-22T08:17:28.499Z,8.68
2022-11-22T08:19:57.730Z,9.35
2022-11-22T08:22:27.074Z,10.32
2022-11-22T08:24:56.334Z,9.15
2022-11-22T08:27:25.547Z,8.13
2022-11-22T08:29:56.359Z,8.63
2022-11-22T08:32:25.567Z,9.00
2022-11-22T08:34:54.827Z,9.68
2022-11-22T08:37:24.260Z,9.60
2022-11-22T08:39:53.455Z,8.77
2022-11-22T08:42:22.719Z,9.25
2022-11-22T08:44:52.181Z,8.93
2022-11-22T08:47:23.360Z,8.00
2022-11-22T08:49:52.613Z,8.63
2022-11-22T08:52:21.977Z,11.05
2022-11-22T08:54:51.133Z,8.32
2022-11-22T08:57:20.473Z,9.35
2022-11-22T08:59:49.647Z,8.75
2022-11-22T09:02:18.931Z,7.57
2022-11-22T09:04:49.808Z,8.32
2022-11-22T09:10:13.092Z,8.32
2022-11-22T09:12:46.225Z,8.35
2022-11-22T09:15:16.177Z,9.38
2022-11-22T09:17:45.707Z,10.40
2022-11-22T09:20:16.581Z,11.27
2022-11-22T09:22:45.753Z,11.98
2022-11-22T09:25:14.873Z,8.32
2022-11-22T09:27:44.077Z,8.05
2022-11-22T09:30:13.931Z,7.47
2022-11-22T09:32:45.646Z,8.88
2022-11-22T09:35:18.172Z,8.73
2022-11-22T09:37:48.617Z,9.52
2022-11-22T09:40:18.617Z,10.35
2022-11-22T09:43:04.879Z,12.00
2022-11-22T09:46:04.827Z,10.35
2022-11-22T09:49:01.256Z,10.57
2022-11-22T09:51:38.666Z,9.88
2022-11-22T09:54:12.388Z,10.75
2022-11-22T09:56:43.106Z,8.48
2022-11-22T09:59:17.159Z,8.63
2022-11-22T10:01:50.704Z,10.30
2022-11-22T10:04:24.121Z,8.98
2022-11-22T10:06:58.136Z,9.95
2022-11-22T10:09:37.418Z,10.30
2022-11-22T10:12:13.837Z,10.60
2022-11-22T10:14:50.518Z,9.73
2022-11-22T10:17:40.080Z,10.05
2022-11-22T10:20:15.281Z,9.35
2022-11-22T10:22:46.525Z,9.73
2022-11-22T10:25:19.595Z,9.23
2022-11-22T10:27:59.071Z,8.57
2022-11-22T10:30:34.131Z,10.00
2022-11-22T10:33:12.140Z,10.18
2022-11-22T10:36:09.688Z,10.88
2022-11-22T10:38:56.193Z,9.68
2022-11-22T10:41:45.557Z,9.02
2022-11-22T10:44:25.926Z,8.63
2022-11-22T10:47:05.895Z,8.80
2022-11-22T10:49:47.747Z,12.05
2022-11-22T10:52:28.543Z,10.23
2022-11-22T10:55:13.028Z,11.32
2022-11-22T10:57:52.996Z,9.82
2022-11-22T11:00:25.343Z,10.82
2022-11-22T11:03:18.639Z,9.88
2022-11-22T11:11:39.259Z,11.73
2022-11-22T11:14:21.264Z,11.27
2022-11-22T11:16:51.592Z,10.18
2022-11-22T11:19:23.024Z,10.35
2022-11-22T11:21:59.854Z,11.48
2022-11-22T11:24:32.711Z,12.82
2022-11-22T11:27:07.990Z,10.27
2022-11-22T11:29:41.780Z,10.70
2022-11-22T11:32:17.304Z,9.95
2022-11-22T11:34:55.025Z,10.18
2022-11-22T11:37:27.190Z,10.63
2022-11-22T11:40:09.217Z,12.18
2022-11-22T11:42:40.235Z,11.43
2022-11-22T11:45:28.587Z,10.27
2022-11-22T11:47:57.785Z,10.30
2022-11-22T11:50:28.702Z,11.05
2022-11-22T11:53:05.576Z,10.00
2022-11-22T11:55:37.286Z,9.95
2022-11-22T11:58:22.782Z,12.35
2022-11-22T12:00:52.362Z,10.32
2022-11-22T12:03:26.972Z,10.50
2022-11-22T12:06:15.891Z,9.80
2022-11-22T12:08:45.025Z,9.07
2022-11-22T12:11:19.872Z,7.28
2022-11-22T12:16:50.050Z,7.00
2022-11-22T12:19:41.260Z,8.10
2022-11-22T12:22:35.744Z,8.05
2022-11-22T12:25:34.260Z,7.90
2022-11-22T12:28:14.032Z,7.20
2022-11-22T12:30:47.191Z,7.80
2022-11-22T12:33:46.428Z,8.48
2022-11-22T12:36:22.344Z,7.05
2022-11-22T12:41:27.533Z,6.07
2022-11-22T12:43:59.703Z,8.90
2022-11-22T12:46:50.558Z,7.82
2022-11-22T12:49:29.188Z,7.20
2022-11-22T12:52:05.540Z,7.35
2022-11-22T12:54:40.169Z,7.72
2022-11-22T12:57:29.512Z,7.35
2022-11-22T13:00:05.331Z,6.28
2022-11-22T13:02:42.723Z,8.23
2022-11-22T13:05:20.456Z,10.75
2022-11-22T13:07:58.694Z,5.97
2022-11-22T13:10:36.228Z,7.90
2022-11-22T13:13:08.745Z,8.70
2022-11-22T13:15:41.175Z,9.48
2022-11-22T13:18:16.803Z,7.20
2022-11-22T13:20:57.610Z,4.32
2022-11-22T13:23:51.937Z,5.40
2022-11-22T13:26:31.160Z,6.97
2022-11-22T13:29:02.823Z,10.23
2022-11-22T13:32:33.146Z,7.97
2022-11-22T13:35:08.486Z,6.15
2022-11-22T13:41:29.125Z,5.40
2022-11-22T13:44:00.460Z,6.05
2022-11-22T13:47:03.825Z,9.40
2022-11-22T13:49:39.211Z,7.60
2022-11-22T13:52:50.908Z,4.13
2022-11-22T13:55:42.287Z,6.30
2022-11-22T13:58:55.979Z,8.02
2022-11-22T14:02:07.288Z,4.55
2022-11-22T14:04:45.304Z,4.03
2022-11-22T14:07:32.347Z,6.72
2022-11-22T14:10:05.328Z,3.22
2022-11-22T14:13:07.106Z,4.32
2022-11-22T14:16:02.111Z,5.43
2022-11-22T14:18:52.063Z,4.43
2022-11-22T14:21:46.748Z,4.22
2022-11-22T14:24:29.965Z,5.32
2022-11-22T14:27:12.510Z,4.22
2022-11-22T14:30:03.905Z,4.63
2022-11-22T14:32:44.879Z,4.57
2022-11-22T14:35:30.328Z,4.80
2022-11-22T14:38:29.072Z,4.65
2022-11-22T14:41:33.552Z,5.25
2022-11-22T14:44:14.578Z,8.15
2022-11-22T14:46:54.863Z,6.60
2022-11-22T14:49:34.676Z,3.30
2022-11-22T14:52:04.297Z,4.43
2022-11-22T14:54:47.271Z,5.10
2022-11-22T14:57:20.862Z,4.75
2022-11-22T15:00:18.317Z,4.25
2022-11-22T15:03:16.596Z,4.80
2022-11-22T15:09:21.962Z,6.95
2022-11-22T15:09:22.733Z,5.43
2022-11-22T15:12:08.081Z,7.22
2022-11-22T15:57:44.988Z,5.75
2022-11-22T16:00:23.598Z,3.72
2022-11-22T16:02:58.735Z,4.63
2022-11-22T16:06:10.443Z,5.45
2022-11-22T16:11:05.744Z,4.93
2022-11-22T16:13:40.568Z,5.05
2022-11-22T16:16:20.741Z,5.07
2022-11-22T16:18:51.261Z,4.57
2022-11-22T16:21:29.023Z,7.15
2022-11-22T16:24:31.364Z,4.03
2022-11-22T16:27:04.057Z,3.55
2022-11-22T16:29:39.370Z,2.50
2022-11-22T16:32:13.766Z,4.95
2022-11-22T16:34:45.153Z,4.80
2022-11-22T16:37:38.388Z,4.78
2022-11-22T16:40:10.009Z,4.53
2022-11-22T16:42:41.584Z,4.68
2022-11-22T16:45:17.542Z,3.92
2022-11-22T16:47:58.287Z,3.25
2022-11-22T16:50:41.913Z,4.72
2022-11-22T16:53:15.275Z,5.55
2022-11-22T16:55:45.143Z,3.45
2022-11-22T16:58:20.050Z,4.68
2022-11-22T17:00:56.326Z,5.30
2022-11-22T17:03:32.304Z,5.47
2022-11-22T17:08:31.178Z,3.58
2022-11-22T17:11:00.896Z,3.80
2022-11-22T17:13:31.552Z,2.90
2022-11-22T17:16:00.692Z,3.55
2022-11-22T17:18:29.912Z,3.05
2022-11-22T17:20:59.111Z,1.83
2022-11-22T17:23:33.428Z,4.30
2022-11-22T17:26:02.615Z,2.65
2022-11-22T17:28:33.510Z,3.08
2022-11-22T17:31:03.204Z,2.05
2022-11-22T17:33:32.329Z,3.40
2022-11-22T17:36:01.410Z,3.15
2022-11-22T17:38:30.572Z,4.30
2022-11-22T17:41:01.392Z,4.78
2022-11-22T17:43:32.107Z,5.72
2022-11-22T17:46:02.204Z,4.15
2022-11-22T17:48:32.163Z,6.03
2022-11-22T17:51:01.363Z,6.55
2022-11-22T17:53:30.595Z,5.78
2022-11-22T17:56:10.515Z,6.53
2022-11-22T17:58:42.474Z,6.72
2022-11-22T18:01:14.019Z,9.25
2022-11-22T18:03:43.881Z,3.90
2022-11-22T18:06:13.739Z,6.70
2022-11-22T18:13:46.482Z,5.57
2022-11-22T18:16:18.711Z,3.47
2022-11-22T18:18:56.796Z,4.57
2022-11-22T18:21:29.798Z,7.57
2022-11-22T18:23:59.926Z,3.65
2022-11-22T18:26:44.900Z,2.55
2022-11-22T18:29:43.011Z,4.82
2022-11-22T18:32:14.173Z,2.55
2022-11-22T18:34:43.490Z,4.70
2022-11-22T18:37:12.781Z,6.07
2022-11-22T18:39:42.087Z,3.45
2022-11-22T18:42:14.836Z,4.40
2022-11-22T18:44:44.618Z,5.07
2022-11-22T18:47:15.487Z,5.85
2022-11-22T18:49:44.729Z,5.93
2022-11-22T18:52:16.591Z,7.50
2022-11-22T18:54:47.258Z,6.10
2022-11-22T18:57:16.570Z,4.10
2022-11-22T18:59:45.925Z,6.70
2022-11-22T19:02:16.596Z,8.75
2022-11-22T19:04:45.856Z,7.32
2022-11-22T19:07:15.387Z,6.40
2022-11-22T19:09:44.664Z,3.33
2022-11-22T19:12:14.062Z,5.30
2022-11-22T19:14:43.303Z,5.43
2022-11-22T19:17:12.534Z,5.18
2022-11-22T19:19:43.225Z,1.67
2022-11-22T19:22:12.542Z,3.13
2022-11-22T19:24:44.817Z,5.32
2022-11-22T19:27:16.541Z,3.63
2022-11-22T19:29:45.751Z,3.90
2022-11-22T19:32:14.995Z,5.00
2022-11-22T19:34:45.749Z,4.93
2022-11-22T19:37:14.912Z,5.22
2022-11-22T19:39:44.147Z,5.13
2022-11-22T19:42:13.522Z,4.90
2022-11-22T19:44:42.682Z,6.07
2022-11-22T19:47:11.981Z,7.00
2022-11-22T19:49:41.267Z,5.88
2022-11-22T19:52:12.143Z,3.45
2022-11-22T19:54:41.386Z,5.03
2022-11-22T19:57:10.627Z,6.53
2022-11-22T19:59:40.062Z,6.68
2022-11-22T20:02:10.795Z,6.22
2022-11-22T20:04:40.051Z,5.60
2022-11-22T20:07:09.330Z,5.00
2022-11-22T20:09:40.768Z,5.68
2022-11-22T20:12:10.038Z,4.30
2022-11-22T20:14:39.197Z,4.25
2022-11-22T20:17:08.407Z,4.32
2022-11-22T20:19:37.839Z,4.95
2022-11-22T20:22:07.060Z,3.45
2022-11-22T20:24:36.297Z,5.45
2022-11-22T20:27:06.940Z,4.35
2022-11-22T20:29:36.150Z,4.75
2022-11-22T20:32:06.339Z,5.30
2022-11-22T20:34:35.837Z,4.53
2022-11-22T20:37:05.120Z,4.45
2022-11-22T20:39:36.795Z,5.75
2022-11-22T20:42:33.023Z,5.78
2022-11-22T20:44:56.725Z,4.90
2022-11-22T20:47:25.972Z,6.10
2022-11-22T20:49:55.145Z,3.42
2022-11-22T20:52:24.346Z,6.07
2022-11-22T20:54:53.488Z,4.07
2022-11-22T20:57:25.397Z,4.30
2022-11-22T20:59:54.579Z,4.80
2022-11-22T21:02:23.811Z,4.72
2022-11-22T21:04:53.076Z,5.10
2022-11-22T21:07:22.320Z,5.07
2022-11-22T21:09:51.500Z,5.25
2022-11-22T21:12:20.746Z,4.40
2022-11-22T21:14:53.657Z,4.47
2022-11-22T21:17:42.213Z,4.85
2022-11-22T21:20:12.958Z,5.40
2022-11-22T21:22:42.736Z,5.18
2022-11-22T21:25:12.190Z,4.75
2022-11-22T21:27:41.373Z,3.83
2022-11-22T21:30:13.612Z,3.40
2022-11-22T21:32:42.939Z,4.45
2022-11-22T21:35:12.726Z,5.20
2022-11-22T21:37:42.437Z,4.70
2022-11-22T21:40:12.947Z,4.95
2022-11-22T21:42:42.365Z,3.97
2022-11-22T21:45:13.420Z,4.57
2022-11-22T21:47:42.579Z,4.32
2022-11-22T21:50:13.469Z,3.72
2022-11-22T21:52:42.720Z,4.03
2022-11-22T21:55:12.475Z,3.53
2022-11-22T21:58:26.889Z,3.08
2022-11-22T22:01:08.306Z,4.38
2022-11-22T22:03:40.597Z,4.90
2022-11-22T22:06:10.287Z,4.75
2022-11-22T22:08:41.110Z,3.97
2022-11-22T22:11:10.511Z,3.92
2022-11-22T22:13:39.622Z,4.10
2022-11-22T22:16:16.143Z,4.18
2022-11-22T22:18:45.333Z,4.05
2022-11-22T22:21:15.675Z,4.43
2022-11-22T22:23:45.662Z,4.63
2022-11-22T22:26:16.149Z,5.18
2022-11-22T22:28:46.338Z,5.43
2022-11-22T22:31:22.030Z,5.28
2022-11-22T22:33:53.361Z,3.50
2022-11-22T22:36:23.426Z,3.40
2022-11-22T22:38:52.697Z,4.03
2022-11-22T22:41:21.910Z,4.15
2022-11-22T22:43:51.450Z,4.50
2022-11-22T22:46:25.190Z,4.63
2022-11-22T22:48:56.621Z,5.40
2022-11-22T22:51:32.288Z,4.95
2022-11-22T22:54:02.937Z,4.20
2022-11-22T22:56:33.518Z,5.13
2022-11-22T22:59:02.708Z,4.10
2022-11-22T23:01:33.925Z,4.63
2022-11-22T23:04:04.055Z,5.13
2022-11-22T23:06:35.221Z,4.97
2022-11-22T23:09:06.516Z,3.90
2022-11-22T23:11:53.529Z,5.43
2022-11-22T23:14:25.184Z,4.57
2022-11-22T23:16:57.975Z,3.55
2022-11-22T23:19:28.654Z,3.30
2022-11-22T23:21:58.276Z,3.58
2022-11-22T23:24:27.480Z,5.25
2022-11-22T23:26:56.623Z,4.35
2022-11-22T23:29:25.898Z,5.43
2022-11-22T23:31:56.567Z,5.05
2022-11-22T23:34:25.795Z,3.83
2022-11-22T23:36:55.171Z,4.50
2022-11-22T23:39:24.435Z,4.55
2022-11-22T23:41:53.645Z,4.35
2022-11-22T23:44:22.760Z,4.72
2022-11-22T23:46:51.961Z,4.28
2022-11-22T23:49:23.003Z,4.72
2022-11-22T23:51:52.325Z,5.20
2022-11-22T23:54:21.582Z,5.45
2022-11-22T23:56:50.750Z,4.88
2022-11-22T23:59:21.995Z,6.97
